Portada
METAR-TAF:

METAR-TAF

Aeroports :

Aeroport Internacional Diori Hamani

Niamey, Níger

latitud: 13-29N, longitud: 002-10E, altitud: 223 m

Observació

L'informe es va fer fa 34 minuts, a les 14:00 UTC
Vent 1 kt amb direcció variable
Temperatura 36°C
Humitat 35%
Pressió 1010 hPa
Visibilitat 10 km o més
Escasses núvols a una alçada de 2000 ft

METAR: DRRN 171400Z VRB01KT 9999 FEW020 36/18 Q1010 NOSIG

Hora: 15:34 (14:34 UTC)

Pronòstic

L'informe es va fer fa 3 hores i 34 minuts, a les 11:00 UTC
Pronòstic vàlid del 17 a les 12 UTC al 18 a les 18 UTC
Vent 8 kt del Oest/Sud-Oest
Visibilitat: 8000 m
Escasses núvols a una alçada de 3000 ft
Probabilitat 30% :
Temporalment
l' 17 a les 13 UTC al 17 a les 18 UTC
Cel ennuvolat a una alçada de 1400 ft, Cumulonimbus.
tempesta

TAF: DRRN 171100Z 1712/1818 24008KT 8000 FEW030 PROB30 TEMPO 1713/1718 TS BKN014CB

Observacions i pronòstics meteorològics de més de 4000 aeroports (METAR i TAF).

Les estacions disponibles són els punts grocs i vermells al mapa.

Posi el ratolí al punt desitjat per veure el nom de l'estació.

Feu clic per veure les observacions i els pronòstics meteorològics.

Per canviar el mapa: feu clic els botons verds amb una creu de color negre per apropar; al botó verd amb un guió per allunyar la imatge; o en les fletxes verdes per a mapes adjacents.


METAR-TAF: